sensor_id;sensor_type;location;lat;lon;timestamp;P1;durP1;ratioP1;P2;durP2;ratioP2
35961;SDS011;22044;48.298;10.008;2023-04-16T00:02:23;2.57;;;2.37;;
35961;SDS011;22044;48.298;10.008;2023-04-16T00:05:10;3.00;;;2.70;;
35961;SDS011;22044;48.298;10.008;2023-04-16T00:07:56;2.73;;;2.20;;
35961;SDS011;22044;48.298;10.008;2023-04-16T00:10:41;2.63;;;2.43;;
35961;SDS011;22044;48.298;10.008;2023-04-16T00:13:28;2.73;;;2.50;;
35961;SDS011;22044;48.298;10.008;2023-04-16T00:16:14;2.93;;;2.70;;
35961;SDS011;22044;48.298;10.008;2023-04-16T00:18:59;2.70;;;2.50;;
35961;SDS011;22044;48.298;10.008;2023-04-16T00:21:45;2.63;;;2.43;;
35961;SDS011;22044;48.298;10.008;2023-04-16T00:24:31;4.10;;;3.10;;
35961;SDS011;22044;48.298;10.008;2023-04-16T00:27:17;3.33;;;2.83;;
35961;SDS011;22044;48.298;10.008;2023-04-16T00:30:05;5.53;;;3.20;;
35961;SDS011;22044;48.298;10.008;2023-04-16T00:32:51;3.27;;;2.97;;
35961;SDS011;22044;48.298;10.008;2023-04-16T00:35:36;3.53;;;3.20;;
35961;SDS011;22044;48.298;10.008;2023-04-16T00:38:22;3.67;;;3.27;;
35961;SDS011;22044;48.298;10.008;2023-04-16T00:41:08;3.30;;;3.00;;
35961;SDS011;22044;48.298;10.008;2023-04-16T00:43:53;3.53;;;3.23;;
35961;SDS011;22044;48.298;10.008;2023-04-16T00:46:40;3.60;;;3.30;;
35961;SDS011;22044;48.298;10.008;2023-04-16T00:49:26;3.87;;;3.40;;
35961;SDS011;22044;48.298;10.008;2023-04-16T00:52:14;3.90;;;3.50;;
35961;SDS011;22044;48.298;10.008;2023-04-16T00:54:59;3.23;;;2.93;;
35961;SDS011;22044;48.298;10.008;2023-04-16T00:57:45;4.03;;;3.63;;
35961;SDS011;22044;48.298;10.008;2023-04-16T01:00:31;3.97;;;3.57;;
35961;SDS011;22044;48.298;10.008;2023-04-16T01:03:18;3.53;;;3.23;;
35961;SDS011;22044;48.298;10.008;2023-04-16T01:06:05;4.40;;;4.00;;
35961;SDS011;22044;48.298;10.008;2023-04-16T01:08:51;4.60;;;4.10;;
35961;SDS011;22044;48.298;10.008;2023-04-16T01:11:36;4.77;;;4.23;;
35961;SDS011;22044;48.298;10.008;2023-04-16T01:14:22;5.33;;;3.83;;
35961;SDS011;22044;48.298;10.008;2023-04-16T01:17:08;5.07;;;4.40;;
35961;SDS011;22044;48.298;10.008;2023-04-16T01:19:58;4.03;;;3.63;;
35961;SDS011;22044;48.298;10.008;2023-04-16T01:22:45;4.73;;;4.23;;
35961;SDS011;22044;48.298;10.008;2023-04-16T01:25:30;4.50;;;4.10;;
35961;SDS011;22044;48.298;10.008;2023-04-16T01:28:16;4.70;;;4.20;;
35961;SDS011;22044;48.298;10.008;2023-04-16T01:31:02;4.43;;;4.03;;
35961;SDS011;22044;48.298;10.008;2023-04-16T01:34:20;4.70;;;4.30;;
35961;SDS011;22044;48.298;10.008;2023-04-16T01:37:06;4.53;;;4.13;;
35961;SDS011;22044;48.298;10.008;2023-04-16T01:39:53;5.63;;;4.27;;
35961;SDS011;22044;48.298;10.008;2023-04-16T01:42:39;5.00;;;4.53;;
35961;SDS011;22044;48.298;10.008;2023-04-16T01:45:25;4.30;;;3.90;;
35961;SDS011;22044;48.298;10.008;2023-04-16T01:48:10;5.67;;;4.30;;
35961;SDS011;22044;48.298;10.008;2023-04-16T01:50:56;4.87;;;3.90;;
35961;SDS011;22044;48.298;10.008;2023-04-16T01:53:43;4.40;;;4.00;;
35961;SDS011;22044;48.298;10.008;2023-04-16T01:56:31;4.63;;;3.97;;
35961;SDS011;22044;48.298;10.008;2023-04-16T01:59:16;4.03;;;3.37;;
35961;SDS011;22044;48.298;10.008;2023-04-16T02:02:02;5.23;;;4.43;;
35961;SDS011;22044;48.298;10.008;2023-04-16T02:04:53;5.27;;;4.10;;
35961;SDS011;22044;48.298;10.008;2023-04-16T02:07:40;4.80;;;4.40;;
35961;SDS011;22044;48.298;10.008;2023-04-16T02:10:25;3.83;;;3.53;;
35961;SDS011;22044;48.298;10.008;2023-04-16T02:13:13;4.53;;;3.93;;
35961;SDS011;22044;48.298;10.008;2023-04-16T02:16:03;3.80;;;3.40;;
35961;SDS011;22044;48.298;10.008;2023-04-16T02:19:00;4.10;;;3.70;;
35961;SDS011;22044;48.298;10.008;2023-04-16T02:21:51;4.10;;;3.70;;
35961;SDS011;22044;48.298;10.008;2023-04-16T02:24:37;4.07;;;3.60;;
35961;SDS011;22044;48.298;10.008;2023-04-16T02:27:26;3.97;;;3.60;;
35961;SDS011;22044;48.298;10.008;2023-04-16T02:30:19;4.50;;;3.53;;
35961;SDS011;22044;48.298;10.008;2023-04-16T02:33:05;3.80;;;3.50;;
35961;SDS011;22044;48.298;10.008;2023-04-16T02:35:53;4.20;;;3.50;;
35961;SDS011;22044;48.298;10.008;2023-04-16T02:38:39;3.57;;;3.27;;
35961;SDS011;22044;48.298;10.008;2023-04-16T02:41:24;4.17;;;3.33;;
35961;SDS011;22044;48.298;10.008;2023-04-16T02:44:10;3.60;;;3.30;;
35961;SDS011;22044;48.298;10.008;2023-04-16T02:46:57;3.37;;;3.07;;
35961;SDS011;22044;48.298;10.008;2023-04-16T02:49:42;3.90;;;3.40;;
35961;SDS011;22044;48.298;10.008;2023-04-16T02:52:28;3.60;;;3.30;;
35961;SDS011;22044;48.298;10.008;2023-04-16T02:55:15;3.67;;;3.27;;
35961;SDS011;22044;48.298;10.008;2023-04-16T02:58:01;3.33;;;3.03;;
35961;SDS011;22044;48.298;10.008;2023-04-16T03:00:47;3.67;;;3.37;;
35961;SDS011;22044;48.298;10.008;2023-04-16T03:03:33;3.50;;;3.20;;
35961;SDS011;22044;48.298;10.008;2023-04-16T03:06:19;3.60;;;3.30;;
35961;SDS011;22044;48.298;10.008;2023-04-16T03:09:05;3.70;;;3.40;;
35961;SDS011;22044;48.298;10.008;2023-04-16T03:11:50;4.47;;;3.67;;
35961;SDS011;22044;48.298;10.008;2023-04-16T03:14:36;4.23;;;3.83;;
35961;SDS011;22044;48.298;10.008;2023-04-16T03:17:22;3.70;;;3.40;;
35961;SDS011;22044;48.298;10.008;2023-04-16T03:20:09;3.70;;;3.40;;
35961;SDS011;22044;48.298;10.008;2023-04-16T03:22:55;3.73;;;3.30;;
35961;SDS011;22044;48.298;10.008;2023-04-16T03:25:41;4.03;;;3.73;;
35961;SDS011;22044;48.298;10.008;2023-04-16T03:28:29;4.20;;;3.80;;
35961;SDS011;22044;48.298;10.008;2023-04-16T03:31:15;3.50;;;3.20;;
35961;SDS011;22044;48.298;10.008;2023-04-16T03:34:01;3.80;;;3.50;;
35961;SDS011;22044;48.298;10.008;2023-04-16T03:36:49;3.10;;;2.80;;
35961;SDS011;22044;48.298;10.008;2023-04-16T03:39:35;3.40;;;3.10;;
35961;SDS011;22044;48.298;10.008;2023-04-16T03:42:20;3.20;;;2.90;;
35961;SDS011;22044;48.298;10.008;2023-04-16T03:45:06;4.27;;;3.37;;
35961;SDS011;22044;48.298;10.008;2023-04-16T03:47:52;3.77;;;3.40;;
35961;SDS011;22044;48.298;10.008;2023-04-16T03:50:43;3.33;;;3.03;;
35961;SDS011;22044;48.298;10.008;2023-04-16T03:53:32;3.27;;;2.97;;
35961;SDS011;22044;48.298;10.008;2023-04-16T03:56:17;3.37;;;3.07;;
35961;SDS011;22044;48.298;10.008;2023-04-16T03:59:03;3.60;;;3.30;;
35961;SDS011;22044;48.298;10.008;2023-04-16T04:01:49;3.57;;;3.27;;
35961;SDS011;22044;48.298;10.008;2023-04-16T04:04:35;3.23;;;2.93;;
35961;SDS011;22044;48.298;10.008;2023-04-16T04:07:21;3.60;;;3.30;;
35961;SDS011;22044;48.298;10.008;2023-04-16T04:10:09;3.30;;;2.93;;
35961;SDS011;22044;48.298;10.008;2023-04-16T04:12:58;3.57;;;3.03;;
35961;SDS011;22044;48.298;10.008;2023-04-16T04:15:44;2.73;;;2.53;;
35961;SDS011;22044;48.298;10.008;2023-04-16T04:18:29;2.80;;;2.60;;
35961;SDS011;22044;48.298;10.008;2023-04-16T04:21:17;3.23;;;2.93;;
35961;SDS011;22044;48.298;10.008;2023-04-16T04:24:02;3.33;;;2.93;;
35961;SDS011;22044;48.298;10.008;2023-04-16T04:26:51;3.43;;;2.90;;
35961;SDS011;22044;48.298;10.008;2023-04-16T04:29:37;3.60;;;3.30;;
35961;SDS011;22044;48.298;10.008;2023-04-16T04:32:23;2.97;;;2.60;;
35961;SDS011;22044;48.298;10.008;2023-04-16T04:35:08;3.17;;;2.87;;
35961;SDS011;22044;48.298;10.008;2023-04-16T04:37:54;3.40;;;3.10;;
35961;SDS011;22044;48.298;10.008;2023-04-16T04:40:39;3.70;;;3.20;;
35961;SDS011;22044;48.298;10.008;2023-04-16T04:43:27;3.33;;;3.03;;
35961;SDS011;22044;48.298;10.008;2023-04-16T04:46:13;3.90;;;3.20;;
35961;SDS011;22044;48.298;10.008;2023-04-16T04:48:58;3.97;;;3.20;;
35961;SDS011;22044;48.298;10.008;2023-04-16T04:51:44;4.63;;;3.60;;
35961;SDS011;22044;48.298;10.008;2023-04-16T04:54:30;3.17;;;2.83;;
35961;SDS011;22044;48.298;10.008;2023-04-16T04:57:16;3.63;;;3.07;;
35961;SDS011;22044;48.298;10.008;2023-04-16T05:00:04;3.20;;;2.90;;
35961;SDS011;22044;48.298;10.008;2023-04-16T05:03:00;3.27;;;2.97;;
35961;SDS011;22044;48.298;10.008;2023-04-16T05:05:46;3.70;;;3.40;;
35961;SDS011;22044;48.298;10.008;2023-04-16T05:08:31;3.40;;;3.10;;
35961;SDS011;22044;48.298;10.008;2023-04-16T05:11:17;3.70;;;3.20;;
35961;SDS011;22044;48.298;10.008;2023-04-16T05:14:02;3.23;;;2.93;;
35961;SDS011;22044;48.298;10.008;2023-04-16T05:16:50;3.20;;;2.90;;
35961;SDS011;22044;48.298;10.008;2023-04-16T05:19:35;3.10;;;2.80;;
35961;SDS011;22044;48.298;10.008;2023-04-16T05:22:21;3.00;;;2.53;;
35961;SDS011;22044;48.298;10.008;2023-04-16T05:25:07;3.73;;;2.63;;
35961;SDS011;22044;48.298;10.008;2023-04-16T05:27:52;3.57;;;2.67;;
35961;SDS011;22044;48.298;10.008;2023-04-16T05:30:38;2.70;;;2.50;;
35961;SDS011;22044;48.298;10.008;2023-04-16T05:33:25;3.57;;;2.70;;
35961;SDS011;22044;48.298;10.008;2023-04-16T05:36:10;2.40;;;2.20;;
35961;SDS011;22044;48.298;10.008;2023-04-16T05:38:56;3.10;;;2.40;;
35961;SDS011;22044;48.298;10.008;2023-04-16T05:41:41;2.70;;;2.50;;
35961;SDS011;22044;48.298;10.008;2023-04-16T05:44:27;2.37;;;2.17;;
35961;SDS011;22044;48.298;10.008;2023-04-16T05:47:13;2.80;;;2.50;;
35961;SDS011;22044;48.298;10.008;2023-04-16T05:50:00;2.50;;;2.30;;
35961;SDS011;22044;48.298;10.008;2023-04-16T05:52:45;2.90;;;2.60;;
35961;SDS011;22044;48.298;10.008;2023-04-16T05:55:31;2.60;;;2.37;;
35961;SDS011;22044;48.298;10.008;2023-04-16T05:58:16;2.47;;;2.27;;
35961;SDS011;22044;48.298;10.008;2023-04-16T06:01:02;2.60;;;2.40;;
35961;SDS011;22044;48.298;10.008;2023-04-16T06:03:48;2.83;;;2.40;;
35961;SDS011;22044;48.298;10.008;2023-04-16T06:06:35;3.60;;;2.70;;
35961;SDS011;22044;48.298;10.008;2023-04-16T06:09:21;3.13;;;2.83;;
35961;SDS011;22044;48.298;10.008;2023-04-16T06:12:07;4.03;;;3.23;;
35961;SDS011;22044;48.298;10.008;2023-04-16T06:14:54;4.20;;;3.37;;
35961;SDS011;22044;48.298;10.008;2023-04-16T06:17:39;4.10;;;2.50;;
35961;SDS011;22044;48.298;10.008;2023-04-16T06:20:25;3.70;;;2.93;;
35961;SDS011;22044;48.298;10.008;2023-04-16T06:23:12;2.67;;;2.40;;
35961;SDS011;22044;48.298;10.008;2023-04-16T06:25:58;3.80;;;3.20;;
35961;SDS011;22044;48.298;10.008;2023-04-16T06:28:44;4.00;;;3.07;;
35961;SDS011;22044;48.298;10.008;2023-04-16T06:31:30;3.20;;;2.60;;
35961;SDS011;22044;48.298;10.008;2023-04-16T06:34:15;2.30;;;2.10;;
35961;SDS011;22044;48.298;10.008;2023-04-16T06:37:01;2.77;;;2.57;;
35961;SDS011;22044;48.298;10.008;2023-04-16T06:39:48;2.77;;;2.57;;
35961;SDS011;22044;48.298;10.008;2023-04-16T06:42:33;2.23;;;2.03;;
35961;SDS011;22044;48.298;10.008;2023-04-16T06:45:21;2.70;;;2.03;;
35961;SDS011;22044;48.298;10.008;2023-04-16T06:48:08;2.33;;;2.13;;
35961;SDS011;22044;48.298;10.008;2023-04-16T06:50:54;2.30;;;2.10;;
35961;SDS011;22044;48.298;10.008;2023-04-16T06:53:40;1.93;;;1.70;;
35961;SDS011;22044;48.298;10.008;2023-04-16T06:56:27;2.47;;;1.70;;
35961;SDS011;22044;48.298;10.008;2023-04-16T06:59:13;2.07;;;1.90;;
35961;SDS011;22044;48.298;10.008;2023-04-16T07:01:58;3.30;;;2.30;;
35961;SDS011;22044;48.298;10.008;2023-04-16T07:04:44;2.30;;;2.10;;
35961;SDS011;22044;48.298;10.008;2023-04-16T07:07:31;2.03;;;1.87;;
35961;SDS011;22044;48.298;10.008;2023-04-16T07:10:16;2.17;;;1.97;;
35961;SDS011;22044;48.298;10.008;2023-04-16T07:13:03;2.20;;;1.87;;
35961;SDS011;22044;48.298;10.008;2023-04-16T07:15:49;2.10;;;1.90;;
35961;SDS011;22044;48.298;10.008;2023-04-16T07:18:35;2.50;;;2.20;;
35961;SDS011;22044;48.298;10.008;2023-04-16T07:21:20;2.50;;;2.30;;
35961;SDS011;22044;48.298;10.008;2023-04-16T07:24:06;2.47;;;2.10;;
35961;SDS011;22044;48.298;10.008;2023-04-16T07:26:52;2.33;;;2.00;;
35961;SDS011;22044;48.298;10.008;2023-04-16T07:29:38;2.27;;;2.07;;
35961;SDS011;22044;48.298;10.008;2023-04-16T07:32:25;2.40;;;2.10;;
35961;SDS011;22044;48.298;10.008;2023-04-16T07:35:10;2.00;;;1.80;;
35961;SDS011;22044;48.298;10.008;2023-04-16T07:37:57;2.10;;;1.93;;
35961;SDS011;22044;48.298;10.008;2023-04-16T07:40:43;2.03;;;1.80;;
35961;SDS011;22044;48.298;10.008;2023-04-16T07:43:28;2.73;;;1.93;;
35961;SDS011;22044;48.298;10.008;2023-04-16T07:46:15;5.13;;;3.20;;
35961;SDS011;22044;48.298;10.008;2023-04-16T07:49:01;8.03;;;5.30;;
35961;SDS011;22044;48.298;10.008;2023-04-16T07:51:47;2.67;;;2.10;;
35961;SDS011;22044;48.298;10.008;2023-04-16T07:54:33;2.83;;;2.23;;
35961;SDS011;22044;48.298;10.008;2023-04-16T07:57:18;2.37;;;1.90;;
35961;SDS011;22044;48.298;10.008;2023-04-16T08:00:04;3.00;;;2.03;;
35961;SDS011;22044;48.298;10.008;2023-04-16T08:02:58;2.17;;;1.97;;
35961;SDS011;22044;48.298;10.008;2023-04-16T08:05:43;2.70;;;2.50;;
35961;SDS011;22044;48.298;10.008;2023-04-16T08:08:29;2.23;;;2.00;;
35961;SDS011;22044;48.298;10.008;2023-04-16T08:11:15;2.43;;;2.20;;
35961;SDS011;22044;48.298;10.008;2023-04-16T08:14:00;2.90;;;2.47;;
35961;SDS011;22044;48.298;10.008;2023-04-16T08:16:46;4.33;;;3.73;;
35961;SDS011;22044;48.298;10.008;2023-04-16T08:19:33;4.17;;;3.77;;
35961;SDS011;22044;48.298;10.008;2023-04-16T08:22:18;2.47;;;2.27;;
35961;SDS011;22044;48.298;10.008;2023-04-16T08:25:05;2.23;;;2.03;;
35961;SDS011;22044;48.298;10.008;2023-04-16T08:27:51;2.33;;;2.00;;
35961;SDS011;22044;48.298;10.008;2023-04-16T08:30:39;2.23;;;1.80;;
35961;SDS011;22044;48.298;10.008;2023-04-16T08:33:25;2.23;;;1.73;;
35961;SDS011;22044;48.298;10.008;2023-04-16T08:36:11;2.10;;;1.83;;
35961;SDS011;22044;48.298;10.008;2023-04-16T08:38:57;2.20;;;2.00;;
35961;SDS011;22044;48.298;10.008;2023-04-16T08:41:44;1.93;;;1.70;;
35961;SDS011;22044;48.298;10.008;2023-04-16T08:44:31;2.13;;;1.70;;
35961;SDS011;22044;48.298;10.008;2023-04-16T08:47:17;1.90;;;1.60;;
35961;SDS011;22044;48.298;10.008;2023-04-16T08:50:06;1.60;;;1.50;;
35961;SDS011;22044;48.298;10.008;2023-04-16T08:52:57;2.40;;;1.93;;
35961;SDS011;22044;48.298;10.008;2023-04-16T08:55:45;2.10;;;1.90;;
35961;SDS011;22044;48.298;10.008;2023-04-16T08:58:32;2.10;;;1.90;;
35961;SDS011;22044;48.298;10.008;2023-04-16T09:01:18;2.70;;;2.20;;
35961;SDS011;22044;48.298;10.008;2023-04-16T09:04:04;3.00;;;2.70;;
35961;SDS011;22044;48.298;10.008;2023-04-16T09:06:50;2.70;;;2.20;;
35961;SDS011;22044;48.298;10.008;2023-04-16T09:09:39;2.67;;;2.27;;
35961;SDS011;22044;48.298;10.008;2023-04-16T09:12:25;5.73;;;4.60;;
35961;SDS011;22044;48.298;10.008;2023-04-16T09:15:12;4.90;;;3.67;;
35961;SDS011;22044;48.298;10.008;2023-04-16T09:17:58;3.47;;;3.07;;
35961;SDS011;22044;48.298;10.008;2023-04-16T09:20:44;3.17;;;2.87;;
35961;SDS011;22044;48.298;10.008;2023-04-16T09:23:29;3.60;;;2.70;;
35961;SDS011;22044;48.298;10.008;2023-04-16T09:26:16;2.53;;;2.30;;
35961;SDS011;22044;48.298;10.008;2023-04-16T09:29:03;2.43;;;2.23;;
35961;SDS011;22044;48.298;10.008;2023-04-16T09:31:55;2.50;;;2.27;;
35961;SDS011;22044;48.298;10.008;2023-04-16T09:34:53;3.17;;;2.40;;
35961;SDS011;22044;48.298;10.008;2023-04-16T09:37:40;2.50;;;2.27;;
35961;SDS011;22044;48.298;10.008;2023-04-16T09:40:25;2.60;;;2.40;;
35961;SDS011;22044;48.298;10.008;2023-04-16T09:43:15;3.33;;;2.50;;
35961;SDS011;22044;48.298;10.008;2023-04-16T09:46:02;3.10;;;2.70;;
35961;SDS011;22044;48.298;10.008;2023-04-16T09:48:48;2.73;;;2.33;;
35961;SDS011;22044;48.298;10.008;2023-04-16T09:51:35;2.63;;;2.30;;
35961;SDS011;22044;48.298;10.008;2023-04-16T09:54:22;3.27;;;2.40;;
35961;SDS011;22044;48.298;10.008;2023-04-16T09:57:10;2.57;;;2.37;;
35961;SDS011;22044;48.298;10.008;2023-04-16T10:00:02;2.97;;;2.67;;
35961;SDS011;22044;48.298;10.008;2023-04-16T10:02:52;4.53;;;2.10;;
35961;SDS011;22044;48.298;10.008;2023-04-16T10:05:47;2.00;;;1.80;;
35961;SDS011;22044;48.298;10.008;2023-04-16T10:08:33;2.93;;;2.30;;
35961;SDS011;22044;48.298;10.008;2023-04-16T10:11:19;2.60;;;2.40;;
35961;SDS011;22044;48.298;10.008;2023-04-16T10:14:05;3.20;;;2.30;;
35961;SDS011;22044;48.298;10.008;2023-04-16T10:16:52;2.80;;;2.30;;
35961;SDS011;22044;48.298;10.008;2023-04-16T10:19:39;3.13;;;2.27;;
35961;SDS011;22044;48.298;10.008;2023-04-16T10:22:25;3.53;;;2.33;;
35961;SDS011;22044;48.298;10.008;2023-04-16T10:25:10;2.70;;;2.47;;
35961;SDS011;22044;48.298;10.008;2023-04-16T10:27:57;3.00;;;2.70;;
35961;SDS011;22044;48.298;10.008;2023-04-16T10:30:43;3.27;;;2.40;;
35961;SDS011;22044;48.298;10.008;2023-04-16T10:33:38;2.50;;;2.30;;
35961;SDS011;22044;48.298;10.008;2023-04-16T10:36:25;2.60;;;2.20;;
35961;SDS011;22044;48.298;10.008;2023-04-16T10:39:11;2.40;;;2.20;;
35961;SDS011;22044;48.298;10.008;2023-04-16T10:42:07;2.57;;;2.37;;
35961;SDS011;22044;48.298;10.008;2023-04-16T10:44:53;3.03;;;2.73;;
35961;SDS011;22044;48.298;10.008;2023-04-16T10:47:42;3.03;;;2.67;;
35961;SDS011;22044;48.298;10.008;2023-04-16T10:50:34;3.10;;;2.80;;
35961;SDS011;22044;48.298;10.008;2023-04-16T10:53:21;3.00;;;2.70;;
35961;SDS011;22044;48.298;10.008;2023-04-16T10:56:11;4.00;;;2.67;;
35961;SDS011;22044;48.298;10.008;2023-04-16T10:58:58;3.23;;;2.93;;
35961;SDS011;22044;48.298;10.008;2023-04-16T11:01:44;2.70;;;2.50;;
35961;SDS011;22044;48.298;10.008;2023-04-16T11:04:34;2.90;;;2.60;;
35961;SDS011;22044;48.298;10.008;2023-04-16T11:07:32;2.73;;;2.47;;
35961;SDS011;22044;48.298;10.008;2023-04-16T11:10:18;3.10;;;2.80;;
35961;SDS011;22044;48.298;10.008;2023-04-16T11:13:04;2.80;;;2.60;;
35961;SDS011;22044;48.298;10.008;2023-04-16T11:15:54;4.07;;;2.90;;
35961;SDS011;22044;48.298;10.008;2023-04-16T11:18:41;4.27;;;2.80;;
35961;SDS011;22044;48.298;10.008;2023-04-16T11:21:29;3.47;;;2.60;;
35961;SDS011;22044;48.298;10.008;2023-04-16T11:24:16;3.00;;;2.70;;
35961;SDS011;22044;48.298;10.008;2023-04-16T11:27:02;3.63;;;3.00;;
35961;SDS011;22044;48.298;10.008;2023-04-16T11:29:55;3.33;;;2.60;;
35961;SDS011;22044;48.298;10.008;2023-04-16T11:32:42;2.93;;;2.50;;
35961;SDS011;22044;48.298;10.008;2023-04-16T11:35:28;3.00;;;2.70;;
35961;SDS011;22044;48.298;10.008;2023-04-16T11:38:14;2.67;;;2.47;;
35961;SDS011;22044;48.298;10.008;2023-04-16T11:41:03;3.20;;;2.90;;
35961;SDS011;22044;48.298;10.008;2023-04-16T11:43:48;3.70;;;2.97;;
35961;SDS011;22044;48.298;10.008;2023-04-16T11:46:37;3.10;;;2.80;;
35961;SDS011;22044;48.298;10.008;2023-04-16T11:49:27;3.07;;;2.77;;
35961;SDS011;22044;48.298;10.008;2023-04-16T11:52:13;3.63;;;3.10;;
35961;SDS011;22044;48.298;10.008;2023-04-16T11:55:08;4.03;;;2.77;;
35961;SDS011;22044;48.298;10.008;2023-04-16T11:57:55;3.60;;;3.13;;
35961;SDS011;22044;48.298;10.008;2023-04-16T12:00:41;3.00;;;2.70;;
35961;SDS011;22044;48.298;10.008;2023-04-16T12:03:36;3.50;;;2.80;;
35961;SDS011;22044;48.298;10.008;2023-04-16T12:06:23;2.83;;;2.53;;
35961;SDS011;22044;48.298;10.008;2023-04-16T12:09:21;3.40;;;3.10;;
35961;SDS011;22044;48.298;10.008;2023-04-16T12:15:14;4.13;;;3.10;;
35961;SDS011;22044;48.298;10.008;2023-04-16T12:18:05;4.10;;;3.70;;
35961;SDS011;22044;48.298;10.008;2023-04-16T12:20:52;3.73;;;3.17;;
35961;SDS011;22044;48.298;10.008;2023-04-16T12:23:37;3.57;;;2.97;;
35961;SDS011;22044;48.298;10.008;2023-04-16T12:26:23;3.43;;;3.13;;
35961;SDS011;22044;48.298;10.008;2023-04-16T12:29:16;3.50;;;3.20;;
35961;SDS011;22044;48.298;10.008;2023-04-16T12:32:05;3.60;;;3.07;;
35961;SDS011;22044;48.298;10.008;2023-04-16T12:35:05;3.70;;;3.37;;
35961;SDS011;22044;48.298;10.008;2023-04-16T12:37:51;4.13;;;3.47;;
35961;SDS011;22044;48.298;10.008;2023-04-16T12:40:37;3.00;;;2.70;;
35961;SDS011;22044;48.298;10.008;2023-04-16T12:43:22;3.33;;;2.97;;
35961;SDS011;22044;48.298;10.008;2023-04-16T12:46:08;3.40;;;3.10;;
35961;SDS011;22044;48.298;10.008;2023-04-16T12:48:55;3.77;;;3.40;;
35961;SDS011;22044;48.298;10.008;2023-04-16T12:51:41;3.73;;;2.80;;
35961;SDS011;22044;48.298;10.008;2023-04-16T12:54:26;3.33;;;2.80;;
35961;SDS011;22044;48.298;10.008;2023-04-16T12:57:13;3.47;;;3.07;;
35961;SDS011;22044;48.298;10.008;2023-04-16T12:59:59;2.87;;;2.57;;
35961;SDS011;22044;48.298;10.008;2023-04-16T13:02:44;3.37;;;3.07;;
35961;SDS011;22044;48.298;10.008;2023-04-16T13:05:31;3.43;;;2.87;;
35961;SDS011;22044;48.298;10.008;2023-04-16T13:08:17;3.27;;;2.97;;
35961;SDS011;22044;48.298;10.008;2023-04-16T13:11:03;2.97;;;2.70;;
35961;SDS011;22044;48.298;10.008;2023-04-16T13:13:49;3.43;;;2.87;;
35961;SDS011;22044;48.298;10.008;2023-04-16T13:16:34;2.63;;;2.30;;
35961;SDS011;22044;48.298;10.008;2023-04-16T13:19:21;2.67;;;2.40;;
35961;SDS011;22044;48.298;10.008;2023-04-16T13:22:08;2.90;;;2.60;;
35961;SDS011;22044;48.298;10.008;2023-04-16T13:24:54;2.50;;;2.30;;
35961;SDS011;22044;48.298;10.008;2023-04-16T13:27:39;2.20;;;2.00;;
35961;SDS011;22044;48.298;10.008;2023-04-16T13:30:25;2.40;;;2.20;;
35961;SDS011;22044;48.298;10.008;2023-04-16T13:33:12;2.73;;;2.43;;
35961;SDS011;22044;48.298;10.008;2023-04-16T13:35:58;2.40;;;2.07;;
35961;SDS011;22044;48.298;10.008;2023-04-16T13:38:45;2.00;;;1.80;;
35961;SDS011;22044;48.298;10.008;2023-04-16T13:41:30;2.73;;;2.23;;
35961;SDS011;22044;48.298;10.008;2023-04-16T13:44:16;2.30;;;1.93;;
35961;SDS011;22044;48.298;10.008;2023-04-16T13:47:01;2.17;;;1.90;;
35961;SDS011;22044;48.298;10.008;2023-04-16T13:49:47;2.57;;;1.70;;
35961;SDS011;22044;48.298;10.008;2023-04-16T13:52:33;2.10;;;1.90;;
35961;SDS011;22044;48.298;10.008;2023-04-16T13:55:20;2.10;;;1.90;;
35961;SDS011;22044;48.298;10.008;2023-04-16T13:58:06;2.73;;;1.77;;
35961;SDS011;22044;48.298;10.008;2023-04-16T14:00:52;2.10;;;1.80;;
35961;SDS011;22044;48.298;10.008;2023-04-16T14:03:38;2.17;;;1.97;;
35961;SDS011;22044;48.298;10.008;2023-04-16T14:06:24;4.63;;;2.13;;
35961;SDS011;22044;48.298;10.008;2023-04-16T14:09:10;3.53;;;3.07;;
35961;SDS011;22044;48.298;10.008;2023-04-16T14:11:58;2.87;;;2.57;;
35961;SDS011;22044;48.298;10.008;2023-04-16T14:14:43;2.67;;;2.37;;
35961;SDS011;22044;48.298;10.008;2023-04-16T14:17:30;2.60;;;2.27;;
35961;SDS011;22044;48.298;10.008;2023-04-16T14:20:15;2.33;;;2.13;;
35961;SDS011;22044;48.298;10.008;2023-04-16T14:23:01;4.00;;;3.60;;
35961;SDS011;22044;48.298;10.008;2023-04-16T14:25:46;2.70;;;2.50;;
35961;SDS011;22044;48.298;10.008;2023-04-16T14:28:35;2.17;;;1.97;;
35961;SDS011;22044;48.298;10.008;2023-04-16T14:31:21;2.77;;;2.50;;
35961;SDS011;22044;48.298;10.008;2023-04-16T14:34:07;3.80;;;3.40;;
35961;SDS011;22044;48.298;10.008;2023-04-16T14:36:53;4.13;;;3.63;;
35961;SDS011;22044;48.298;10.008;2023-04-16T14:39:39;2.73;;;2.43;;
35961;SDS011;22044;48.298;10.008;2023-04-16T14:42:25;5.60;;;4.53;;
35961;SDS011;22044;48.298;10.008;2023-04-16T14:45:12;8.10;;;6.53;;
35961;SDS011;22044;48.298;10.008;2023-04-16T14:47:58;7.57;;;6.77;;
35961;SDS011;22044;48.298;10.008;2023-04-16T14:50:43;3.97;;;3.57;;
35961;SDS011;22044;48.298;10.008;2023-04-16T14:53:29;4.27;;;3.40;;
35961;SDS011;22044;48.298;10.008;2023-04-16T14:56:17;3.10;;;2.70;;
35961;SDS011;22044;48.298;10.008;2023-04-16T14:59:03;3.80;;;2.70;;
35961;SDS011;22044;48.298;10.008;2023-04-16T15:01:51;3.40;;;2.40;;
35961;SDS011;22044;48.298;10.008;2023-04-16T15:04:36;3.23;;;2.33;;
35961;SDS011;22044;48.298;10.008;2023-04-16T15:07:22;2.60;;;2.40;;
35961;SDS011;22044;48.298;10.008;2023-04-16T15:10:09;3.10;;;2.80;;
35961;SDS011;22044;48.298;10.008;2023-04-16T15:12:55;3.37;;;2.60;;
35961;SDS011;22044;48.298;10.008;2023-04-16T15:15:41;3.70;;;3.30;;
35961;SDS011;22044;48.298;10.008;2023-04-16T15:18:28;4.13;;;2.90;;
35961;SDS011;22044;48.298;10.008;2023-04-16T15:21:14;4.57;;;2.57;;
35961;SDS011;22044;48.298;10.008;2023-04-16T15:24:00;3.30;;;2.80;;
35961;SDS011;22044;48.298;10.008;2023-04-16T15:26:46;3.47;;;2.77;;
35961;SDS011;22044;48.298;10.008;2023-04-16T15:29:31;4.03;;;2.93;;
35961;SDS011;22044;48.298;10.008;2023-04-16T15:32:17;3.63;;;2.10;;
35961;SDS011;22044;48.298;10.008;2023-04-16T15:35:04;3.17;;;2.27;;
35961;SDS011;22044;48.298;10.008;2023-04-16T15:37:50;3.23;;;2.90;;
35961;SDS011;22044;48.298;10.008;2023-04-16T15:40:36;2.10;;;1.90;;
35961;SDS011;22044;48.298;10.008;2023-04-16T15:43:22;2.80;;;2.07;;
35961;SDS011;22044;48.298;10.008;2023-04-16T15:46:11;3.10;;;1.90;;
35961;SDS011;22044;48.298;10.008;2023-04-16T15:48:57;2.33;;;2.03;;
35961;SDS011;22044;48.298;10.008;2023-04-16T15:51:44;2.50;;;2.30;;
35961;SDS011;22044;48.298;10.008;2023-04-16T15:54:30;2.90;;;2.60;;
35961;SDS011;22044;48.298;10.008;2023-04-16T15:57:15;2.47;;;2.27;;
35961;SDS011;22044;48.298;10.008;2023-04-16T16:00:01;2.83;;;2.30;;
35961;SDS011;22044;48.298;10.008;2023-04-16T16:02:55;2.87;;;2.50;;
35961;SDS011;22044;48.298;10.008;2023-04-16T16:05:41;3.17;;;2.73;;
35961;SDS011;22044;48.298;10.008;2023-04-16T16:08:28;3.00;;;2.70;;
35961;SDS011;22044;48.298;10.008;2023-04-16T16:11:17;3.20;;;2.90;;
35961;SDS011;22044;48.298;10.008;2023-04-16T16:14:02;2.83;;;2.63;;
35961;SDS011;22044;48.298;10.008;2023-04-16T16:16:49;3.33;;;2.97;;
35961;SDS011;22044;48.298;10.008;2023-04-16T16:19:35;3.50;;;3.17;;
35961;SDS011;22044;48.298;10.008;2023-04-16T16:22:21;3.43;;;3.03;;
35961;SDS011;22044;48.298;10.008;2023-04-16T16:25:08;4.97;;;3.30;;
35961;SDS011;22044;48.298;10.008;2023-04-16T16:27:54;3.30;;;2.93;;
35961;SDS011;22044;48.298;10.008;2023-04-16T16:30:39;3.60;;;3.30;;
35961;SDS011;22044;48.298;10.008;2023-04-16T16:33:25;3.87;;;3.47;;